Time;durP1;ratioP1;P1;durP2;ratioP2;P2;SDS_P1;SDS_P2;PMS_P1;PMS_P2;Temp;Humidity;BMP_temperature;BMP_pressure;BME280_temperature;BME280_humidity;BME280_pressure;Samples;Min_cycle;Max_cycle;Signal;HPM_P1;HPM_P2
2023/05/13 00:01:58;;;;;;;15.17;10.43;;;;;;;;;;5052651;28;20075;-61
2023/05/13 00:04:24;;;;;;;15.93;11.37;;;;;;;;;;5035086;28;20120;-61
2023/05/13 00:06:51;;;;;;;20.10;11.67;;;;;;;;;;5032711;28;20049;-61
2023/05/13 00:09:17;;;;;;;15.70;11.63;;;;;;;;;;5032439;28;20045;-61
2023/05/13 00:11:43;;;;;;;20.10;12.23;;;;;;;;;;5032305;28;20411;-61
2023/05/13 00:14:10;;;;;;;18.47;12.20;;;;;;;;;;5049104;28;20076;-61
2023/05/13 00:16:36;;;;;;;18.30;12.03;;;;;;;;;;5052036;28;20120;-62
2023/05/13 00:19:02;;;;;;;14.90;11.60;;;;;;;;;;5051259;28;20049;-61
2023/05/13 00:21:28;;;;;;;17.27;13.03;;;;;;;;;;5051973;28;20103;-61
2023/05/13 00:23:54;;;;;;;16.20;12.97;;;;;;;;;;5052168;28;20407;-61
2023/05/13 00:26:20;;;;;;;14.73;12.63;;;;;;;;;;5051598;28;20049;-61
2023/05/13 00:28:47;;;;;;;21.13;14.27;;;;;;;;;;5051966;28;20049;-61
2023/05/13 00:31:13;;;;;;;19.00;12.60;;;;;;;;;;5050751;28;20095;-61
2023/05/13 00:33:39;;;;;;;15.37;12.70;;;;;;;;;;5052446;28;20057;-61
2023/05/13 00:36:06;;;;;;;19.53;14.10;;;;;;;;;;5051644;28;20786;-61
2023/05/13 00:38:32;;;;;;;18.53;14.80;;;;;;;;;;5052003;28;20423;-61
2023/05/13 00:40:58;;;;;;;16.90;14.60;;;;;;;;;;5052005;28;20052;-61
2023/05/13 00:43:24;;;;;;;19.17;14.03;;;;;;;;;;5051732;28;20071;-61
2023/05/13 00:45:50;;;;;;;17.57;15.50;;;;;;;;;;5051727;28;20088;-61
2023/05/13 00:48:16;;;;;;;21.23;14.77;;;;;;;;;;5052126;28;20092;-61
2023/05/13 00:50:43;;;;;;;24.67;17.00;;;;;;;;;;5051318;28;20051;-61
2023/05/13 00:53:10;;;;;;;25.37;17.10;;;;;;;;;;5050872;28;20049;-61
2023/05/13 00:55:36;;;;;;;28.47;18.10;;;;;;;;;;5051808;28;20056;-61
2023/05/13 00:58:02;;;;;;;22.50;16.67;;;;;;;;;;5051570;28;20672;-61
2023/05/13 01:00:30;;;;;;;21.77;17.87;;;;;;;;;;5051497;28;20499;-61
2023/05/13 01:03:05;;;;;;;24.83;17.77;;;;;;;;;;5048789;28;20515;-61
2023/05/13 01:05:55;;;;;;;25.07;16.97;;;;;;;;;;5031428;28;20045;-61
2023/05/13 01:08:40;;;;;;;22.67;18.33;;;;;;;;;;5031360;28;20056;-61
2023/05/13 01:11:13;;;;;;;26.47;17.03;;;;;;;;;;5036283;28;20098;-62
2023/05/13 01:13:42;;;;;;;23.40;18.77;;;;;;;;;;5051603;28;20542;-61
2023/05/13 01:16:14;;;;;;;24.37;19.40;;;;;;;;;;5050780;28;20554;-61
2023/05/13 01:18:42;;;;;;;25.47;18.37;;;;;;;;;;5050776;28;20067;-61
2023/05/13 01:21:09;;;;;;;21.07;17.03;;;;;;;;;;5043903;28;20132;-61
2023/05/13 01:23:35;;;;;;;24.10;18.73;;;;;;;;;;5039230;28;20502;-61
2023/05/13 01:26:01;;;;;;;24.33;19.60;;;;;;;;;;5031504;28;20136;-61
2023/05/13 01:28:27;;;;;;;26.30;18.47;;;;;;;;;;5031327;28;20041;-61
2023/05/13 01:30:55;;;;;;;28.20;20.20;;;;;;;;;;5030572;28;20445;-61
2023/05/13 01:33:21;;;;;;;27.07;20.33;;;;;;;;;;5030336;28;20088;-61
2023/05/13 01:35:47;;;;;;;26.13;20.23;;;;;;;;;;5029954;28;20041;-61
2023/05/13 01:38:14;;;;;;;29.47;19.90;;;;;;;;;;5028556;28;20049;-61
2023/05/13 01:40:40;;;;;;;24.87;20.43;;;;;;;;;;5028755;28;20060;-62
2023/05/13 01:43:06;;;;;;;27.47;20.23;;;;;;;;;;5029826;28;20507;-61
2023/05/13 01:45:33;;;;;;;25.57;20.20;;;;;;;;;;5029580;28;20052;-61
2023/05/13 01:47:59;;;;;;;23.40;17.50;;;;;;;;;;5029966;28;20046;-61
2023/05/13 01:50:25;;;;;;;27.83;19.70;;;;;;;;;;5066942;28;20202;-61
2023/05/13 01:52:51;;;;;;;26.77;19.60;;;;;;;;;;5070361;28;20044;-61
2023/05/13 01:55:18;;;;;;;28.83;20.30;;;;;;;;;;5070119;28;20048;-61
2023/05/13 01:57:44;;;;;;;26.20;20.50;;;;;;;;;;5039630;28;20045;-61
2023/05/13 02:00:11;;;;;;;26.17;20.67;;;;;;;;;;5030468;28;20131;-61
2023/05/13 02:02:37;;;;;;;31.33;20.00;;;;;;;;;;5030425;28;20535;-61
2023/05/13 02:05:03;;;;;;;26.23;19.10;;;;;;;;;;5029710;28;20048;-61
2023/05/13 02:07:29;;;;;;;26.40;19.90;;;;;;;;;;5030524;28;20054;-61
2023/05/13 02:09:58;;;;;;;27.37;20.07;;;;;;;;;;5030103;28;20100;-61
2023/05/13 02:12:25;;;;;;;26.77;21.57;;;;;;;;;;5030535;28;20076;-61
2023/05/13 02:14:51;;;;;;;30.50;21.17;;;;;;;;;;5030189;28;20100;-61
2023/05/13 02:17:17;;;;;;;24.67;19.20;;;;;;;;;;5030290;28;20427;-61
2023/05/13 02:19:43;;;;;;;23.63;18.37;;;;;;;;;;5030342;28;20076;-60
2023/05/13 02:22:10;;;;;;;31.33;21.73;;;;;;;;;;5029954;28;20037;-61
2023/05/13 02:24:38;;;;;;;32.13;21.73;;;;;;;;;;5029993;28;20416;-60
2023/05/13 02:27:05;;;;;;;27.73;20.37;;;;;;;;;;5030248;28;20049;-61
2023/05/13 02:29:31;;;;;;;29.90;19.63;;;;;;;;;;5030146;28;20053;-62
2023/05/13 02:31:57;;;;;;;31.20;22.13;;;;;;;;;;5029849;28;20129;-61
2023/05/13 02:34:23;;;;;;;31.03;21.73;;;;;;;;;;5032223;28;20045;-61
2023/05/13 02:36:49;;;;;;;29.67;21.10;;;;;;;;;;5042331;28;20037;-61
2023/05/13 02:39:15;;;;;;;27.23;21.53;;;;;;;;;;5029464;28;20121;-61
2023/05/13 02:41:41;;;;;;;33.27;21.90;;;;;;;;;;5029985;28;20045;-61
2023/05/13 02:44:07;;;;;;;27.03;19.90;;;;;;;;;;5036121;28;20087;-61
2023/05/13 02:46:33;;;;;;;28.33;20.83;;;;;;;;;;5047232;28;20545;-61
2023/05/13 02:48:59;;;;;;;31.57;20.57;;;;;;;;;;5029635;28;20428;-61
2023/05/13 02:51:25;;;;;;;33.50;24.13;;;;;;;;;;5029889;28;20550;-61
2023/05/13 02:53:51;;;;;;;30.50;23.43;;;;;;;;;;5029962;28;20045;-61
2023/05/13 02:56:18;;;;;;;35.37;22.07;;;;;;;;;;5029760;28;20056;-61
2023/05/13 02:58:44;;;;;;;34.47;26.10;;;;;;;;;;5029683;28;20049;-62
2023/05/13 03:01:10;;;;;;;30.90;23.20;;;;;;;;;;5036838;28;20045;-61
2023/05/13 03:03:36;;;;;;;30.00;23.80;;;;;;;;;;5049768;28;20053;-60
2023/05/13 03:06:02;;;;;;;31.37;22.00;;;;;;;;;;5049325;28;20077;-61
2023/05/13 03:08:28;;;;;;;35.97;25.47;;;;;;;;;;5049990;28;20079;-61
2023/05/13 03:10:54;;;;;;;31.90;23.83;;;;;;;;;;5045245;28;20124;-61
2023/05/13 03:13:20;;;;;;;35.97;26.53;;;;;;;;;;5028835;28;20049;-61
2023/05/13 03:15:46;;;;;;;31.87;23.37;;;;;;;;;;5047470;28;20052;-61
2023/05/13 03:18:12;;;;;;;34.23;26.37;;;;;;;;;;5053479;28;20092;-62
2023/05/13 03:20:38;;;;;;;36.73;25.07;;;;;;;;;;5053408;28;20075;-61
2023/05/13 03:23:04;;;;;;;27.87;22.67;;;;;;;;;;5052572;28;20051;-61
2023/05/13 03:25:30;;;;;;;36.13;25.77;;;;;;;;;;5046501;28;20041;-61
2023/05/13 03:27:56;;;;;;;38.50;26.03;;;;;;;;;;5033464;28;20061;-61
2023/05/13 03:30:22;;;;;;;37.53;25.53;;;;;;;;;;5033379;28;20046;-62
2023/05/13 03:32:48;;;;;;;40.17;26.27;;;;;;;;;;5033192;28;20075;-61
2023/05/13 03:35:14;;;;;;;30.30;24.00;;;;;;;;;;5031509;28;20446;-62
2023/05/13 03:37:40;;;;;;;38.07;25.80;;;;;;;;;;5032819;28;20496;-62
2023/05/13 03:40:07;;;;;;;37.47;27.27;;;;;;;;;;5039919;28;20634;-62
2023/05/13 03:42:33;;;;;;;35.80;27.20;;;;;;;;;;5052711;28;20491;-62
2023/05/13 03:44:59;;;;;;;38.93;26.80;;;;;;;;;;5052808;28;20051;-61
2023/05/13 03:47:25;;;;;;;36.07;26.70;;;;;;;;;;5052621;28;20152;-62
2023/05/13 03:49:51;;;;;;;39.70;26.40;;;;;;;;;;5053009;28;20450;-62
2023/05/13 03:52:17;;;;;;;45.00;29.40;;;;;;;;;;5046254;28;20045;-59
2023/05/13 03:54:43;;;;;;;44.63;29.93;;;;;;;;;;5032597;28;20041;-61
2023/05/13 03:57:09;;;;;;;42.47;28.83;;;;;;;;;;5047483;28;20095;-61
2023/05/13 03:59:35;;;;;;;37.03;27.50;;;;;;;;;;5052479;28;20037;-60
2023/05/13 04:02:01;;;;;;;37.33;27.83;;;;;;;;;;5052528;28;20041;-60
2023/05/13 04:04:27;;;;;;;40.83;28.30;;;;;;;;;;5052318;28;20103;-59
2023/05/13 04:06:53;;;;;;;38.83;27.10;;;;;;;;;;5051665;28;20041;-61
2023/05/13 04:09:19;;;;;;;42.40;30.03;;;;;;;;;;5051970;28;20049;-60
2023/05/13 04:11:45;;;;;;;39.67;27.80;;;;;;;;;;5035757;28;20041;-59
2023/05/13 04:14:11;;;;;;;53.20;33.77;;;;;;;;;;5032044;28;20049;-60
2023/05/13 04:16:37;;;;;;;45.20;32.00;;;;;;;;;;5032438;28;20761;-59
2023/05/13 04:19:03;;;;;;;43.20;30.87;;;;;;;;;;5031544;28;20492;-59
2023/05/13 04:21:30;;;;;;;47.87;32.17;;;;;;;;;;5032677;28;20046;-59
2023/05/13 04:23:56;;;;;;;47.37;32.17;;;;;;;;;;5032260;28;20516;-59
2023/05/13 04:26:22;;;;;;;49.37;31.80;;;;;;;;;;5034350;28;20053;-59
2023/05/13 04:28:48;;;;;;;43.40;30.07;;;;;;;;;;5051250;28;20052;-59
2023/05/13 04:31:14;;;;;;;47.70;32.33;;;;;;;;;;5051915;28;20053;-59
2023/05/13 04:33:40;;;;;;;53.63;32.97;;;;;;;;;;5051504;28;20404;-59
2023/05/13 04:36:06;;;;;;;54.30;34.80;;;;;;;;;;5051970;28;20041;-59
2023/05/13 04:38:32;;;;;;;48.17;33.00;;;;;;;;;;5051759;28;20049;-59
2023/05/13 04:40:58;;;;;;;53.23;34.50;;;;;;;;;;5051031;28;20570;-59
2023/05/13 04:43:24;;;;;;;54.37;35.57;;;;;;;;;;5051361;28;20045;-59
2023/05/13 04:45:50;;;;;;;54.27;36.03;;;;;;;;;;5041593;28;20052;-59
2023/05/13 04:48:16;;;;;;;44.60;33.47;;;;;;;;;;5031781;28;20486;-62
2023/05/13 04:50:46;;;;;;;55.03;36.60;;;;;;;;;;5031527;28;20049;-62
2023/05/13 04:53:12;;;;;;;46.47;32.43;;;;;;;;;;5031770;28;20048;-59
2023/05/13 04:55:38;;;;;;;50.53;35.87;;;;;;;;;;5031572;28;20050;-60
2023/05/13 04:58:04;;;;;;;62.37;38.67;;;;;;;;;;5031085;28;20115;-59
2023/05/13 05:00:30;;;;;;;58.57;36.03;;;;;;;;;;5031740;28;20048;-59
2023/05/13 05:02:56;;;;;;;47.90;35.07;;;;;;;;;;5046938;28;20037;-59
2023/05/13 05:05:22;;;;;;;52.67;36.47;;;;;;;;;;5043581;28;20049;-59
2023/05/13 05:07:48;;;;;;;56.50;37.47;;;;;;;;;;5050717;28;20037;-59
2023/05/13 05:10:14;;;;;;;48.87;33.03;;;;;;;;;;5051189;28;20396;-60
2023/05/13 05:12:41;;;;;;;52.90;38.67;;;;;;;;;;5050757;28;20569;-60
2023/05/13 05:15:14;;;;;;;49.83;34.93;;;;;;;;;;5051033;28;20052;-60
2023/05/13 05:17:41;;;;;;;45.33;33.95;;;;;;;;;;5051461;28;20045;-60
2023/05/13 05:20:07;;;;;;;44.40;33.50;;;;;;;;;;5051188;28;20094;-60
2023/05/13 05:22:35;;;;;;;49.90;34.57;;;;;;;;;;5048510;28;20045;-60
2023/05/13 05:25:01;;;;;;;46.33;33.70;;;;;;;;;;5030189;28;20153;-60
2023/05/13 05:27:27;;;;;;;52.40;34.07;;;;;;;;;;5030566;28;20049;-60
2023/05/13 05:29:53;;;;;;;40.80;28.90;;;;;;;;;;5033740;28;20041;-60
2023/05/13 05:32:19;;;;;;;44.13;33.87;;;;;;;;;;5030407;28;20091;-60
2023/05/13 05:34:45;;;;;;;45.30;33.27;;;;;;;;;;5029924;28;20128;-60
2023/05/13 05:37:11;;;;;;;41.23;30.00;;;;;;;;;;5030264;28;20056;-60
2023/05/13 05:39:37;;;;;;;43.07;30.80;;;;;;;;;;5029426;28;20041;-60
2023/05/13 05:42:03;;;;;;;45.10;31.30;;;;;;;;;;5030674;28;20132;-60
2023/05/13 05:44:29;;;;;;;35.23;28.33;;;;;;;;;;5041868;28;20045;-60
2023/05/13 05:46:55;;;;;;;35.33;28.40;;;;;;;;;;5050683;28;20403;-60
2023/05/13 05:49:21;;;;;;;37.93;26.73;;;;;;;;;;5060980;28;20069;-60
2023/05/13 05:51:47;;;;;;;33.50;26.23;;;;;;;;;;5059013;28;20130;-60
2023/05/13 05:54:13;;;;;;;36.17;28.30;;;;;;;;;;5058047;28;20407;-60
2023/05/13 05:56:39;;;;;;;34.20;26.07;;;;;;;;;;5059987;28;20063;-60
2023/05/13 05:59:05;;;;;;;36.10;26.47;;;;;;;;;;5058251;28;20052;-60
2023/05/13 06:01:33;;;;;;;37.27;27.90;;;;;;;;;;5067201;28;20048;-60
2023/05/13 06:03:59;;;;;;;37.43;26.13;;;;;;;;;;5070253;28;20050;-60
2023/05/13 06:06:25;;;;;;;30.50;23.97;;;;;;;;;;5051570;28;20041;-60
2023/05/13 06:08:51;;;;;;;32.27;24.30;;;;;;;;;;5030421;28;20049;-62
2023/05/13 06:11:17;;;;;;;25.70;22.07;;;;;;;;;;5045162;28;20124;-61
2023/05/13 06:13:46;;;;;;;29.23;22.30;;;;;;;;;;5064544;28;20844;-61
2023/05/13 06:16:12;;;;;;;26.83;21.37;;;;;;;;;;5051571;28;20070;-61
2023/05/13 06:18:38;;;;;;;31.40;20.60;;;;;;;;;;5049859;28;20052;-62
2023/05/13 06:21:04;;;;;;;23.20;19.30;;;;;;;;;;5058542;28;20045;-61
2023/05/13 06:23:30;;;;;;;26.20;20.20;;;;;;;;;;5056066;28;20410;-62
2023/05/13 06:25:58;;;;;;;27.50;20.67;;;;;;;;;;5058805;28;20568;-61
2023/05/13 06:28:24;;;;;;;28.17;21.43;;;;;;;;;;5053983;28;20545;-61
2023/05/13 06:30:50;;;;;;;27.70;20.40;;;;;;;;;;5056533;28;20056;-62
2023/05/13 06:33:16;;;;;;;23.83;20.17;;;;;;;;;;5053962;28;20549;-61
2023/05/13 06:35:46;;;;;;;21.07;17.80;;;;;;;;;;5056144;28;20106;-62
2023/05/13 06:38:13;;;;;;;25.27;19.50;;;;;;;;;;5053460;28;20053;-61
2023/05/13 06:40:39;;;;;;;20.83;16.90;;;;;;;;;;5057113;28;20095;-61
2023/05/13 06:43:05;;;;;;;18.77;16.57;;;;;;;;;;5054897;28;20049;-61
2023/05/13 06:45:31;;;;;;;19.90;16.53;;;;;;;;;;5060393;28;20049;-61
2023/05/13 06:47:57;;;;;;;21.43;14.43;;;;;;;;;;5055033;28;20124;-61
2023/05/13 06:50:23;;;;;;;15.57;12.97;;;;;;;;;;5069474;28;20072;-61
2023/05/13 06:52:49;;;;;;;16.70;12.90;;;;;;;;;;5069838;28;20067;-61
2023/05/13 06:55:17;;;;;;;14.47;12.90;;;;;;;;;;5069712;28;20060;-61
2023/05/13 06:57:46;;;;;;;16.70;12.63;;;;;;;;;;5069471;28;20114;-61
2023/05/13 07:00:13;;;;;;;18.93;13.97;;;;;;;;;;5063459;28;20415;-61
2023/05/13 07:02:39;;;;;;;17.23;11.83;;;;;;;;;;5057338;28;20495;-61
2023/05/13 07:05:06;;;;;;;14.00;12.13;;;;;;;;;;5057720;28;20555;-61
2023/05/13 07:07:32;;;;;;;15.23;11.77;;;;;;;;;;5059417;28;20131;-61
2023/05/13 07:09:58;;;;;;;16.20;12.83;;;;;;;;;;5057596;28;20099;-61
2023/05/13 07:12:24;;;;;;;18.33;13.03;;;;;;;;;;5057292;28;20052;-62
2023/05/13 07:14:50;;;;;;;16.30;11.40;;;;;;;;;;5059006;28;20043;-62
2023/05/13 07:17:16;;;;;;;22.00;11.80;;;;;;;;;;5052890;28;20041;-61
2023/05/13 07:19:42;;;;;;;13.80;10.37;;;;;;;;;;5048010;28;20124;-62
2023/05/13 07:22:08;;;;;;;14.80;11.50;;;;;;;;;;5056174;28;20167;-62
2023/05/13 07:24:34;;;;;;;13.30;10.40;;;;;;;;;;5054516;28;20124;-63
2023/05/13 07:27:02;;;;;;;14.17;10.10;;;;;;;;;;5058949;28;20128;-62
2023/05/13 07:29:29;;;;;;;14.67;9.67;;;;;;;;;;5051867;28;20056;-60
2023/05/13 07:31:55;;;;;;;15.27;9.10;;;;;;;;;;5066663;28;20080;-61
2023/05/13 07:34:22;;;;;;;12.60;7.97;;;;;;;;;;5067894;28;20045;-61
2023/05/13 07:36:48;;;;;;;11.33;9.40;;;;;;;;;;5069132;28;20136;-61
2023/05/13 07:39:14;;;;;;;13.17;9.47;;;;;;;;;;5053016;28;20076;-60
2023/05/13 07:41:40;;;;;;;12.23;9.67;;;;;;;;;;5049210;28;20088;-60
2023/05/13 07:44:10;;;;;;;11.73;8.27;;;;;;;;;;5049010;28;20055;-60
2023/05/13 07:46:36;;;;;;;10.43;8.27;;;;;;;;;;5049063;28;20434;-61
2023/05/13 07:49:05;;;;;;;19.20;8.67;;;;;;;;;;5048780;28;20041;-61
2023/05/13 07:51:31;;;;;;;11.37;7.50;;;;;;;;;;5052505;28;20041;-60
2023/05/13 07:53:57;;;;;;;11.83;7.10;;;;;;;;;;5058850;28;20075;-61
2023/05/13 07:56:23;;;;;;;10.53;6.67;;;;;;;;;;5056658;28;20033;-61
2023/05/13 07:58:49;;;;;;;14.27;6.47;;;;;;;;;;5058203;28;20052;-61
2023/05/13 08:01:16;;;;;;;11.20;6.37;;;;;;;;;;5057333;28;20049;-61
2023/05/13 08:03:42;;;;;;;9.57;6.70;;;;;;;;;;5059589;28;20045;-61
2023/05/13 08:06:08;;;;;;;10.30;6.20;;;;;;;;;;5062025;28;20293;-61
2023/05/13 08:08:34;;;;;;;10.80;5.57;;;;;;;;;;5061245;28;20044;-61
2023/05/13 08:11:00;;;;;;;10.87;6.20;;;;;;;;;;5060029;28;20048;-61
2023/05/13 08:13:26;;;;;;;13.10;6.10;;;;;;;;;;5063217;28;20052;-61
2023/05/13 08:15:52;;;;;;;12.03;5.80;;;;;;;;;;5061540;28;20045;-61
2023/05/13 08:18:18;;;;;;;13.47;5.93;;;;;;;;;;5060510;28;20461;-61
2023/05/13 08:20:45;;;;;;;11.10;5.33;;;;;;;;;;5062925;28;20040;-61
2023/05/13 08:23:11;;;;;;;10.53;5.47;;;;;;;;;;5060734;28;20045;-61
2023/05/13 08:25:37;;;;;;;8.13;5.40;;;;;;;;;;5060959;28;20041;-59
2023/05/13 08:28:03;;;;;;;8.10;5.07;;;;;;;;;;5062580;28;20564;-61
2023/05/13 08:30:29;;;;;;;6.90;5.23;;;;;;;;;;5062582;28;20059;-61
2023/05/13 08:32:55;;;;;;;10.37;5.40;;;;;;;;;;5059348;28;20503;-61
2023/05/13 08:35:22;;;;;;;12.67;5.60;;;;;;;;;;5062491;28;20048;-61
2023/05/13 08:37:48;;;;;;;12.17;5.23;;;;;;;;;;5058994;28;20915;-61
2023/05/13 08:40:14;;;;;;;11.17;5.87;;;;;;;;;;5061492;28;20055;-61
2023/05/13 08:42:40;;;;;;;7.50;5.17;;;;;;;;;;5059752;28;20079;-61
2023/05/13 08:45:07;;;;;;;10.93;5.37;;;;;;;;;;5061616;28;20040;-61
2023/05/13 08:47:33;;;;;;;8.80;4.90;;;;;;;;;;5061052;28;20040;-61
2023/05/13 08:49:59;;;;;;;8.30;4.90;;;;;;;;;;5063023;28;20078;-61
2023/05/13 08:52:26;;;;;;;6.83;5.33;;;;;;;;;;5064530;28;20539;-62
2023/05/13 08:54:53;;;;;;;8.97;5.17;;;;;;;;;;5059074;28;20036;-61
2023/05/13 08:57:19;;;;;;;10.20;5.37;;;;;;;;;;5061527;28;20431;-61
2023/05/13 08:59:45;;;;;;;9.80;4.93;;;;;;;;;;5060129;28;20430;-59
2023/05/13 09:02:11;;;;;;;9.47;4.87;;;;;;;;;;5061283;28;20063;-60
2023/05/13 09:04:40;;;;;;;10.90;5.10;;;;;;;;;;5060855;28;20037;-60
2023/05/13 09:07:06;;;;;;;8.90;4.17;;;;;;;;;;5059059;28;20111;-59
2023/05/13 09:09:32;;;;;;;8.80;4.37;;;;;;;;;;5060471;28;20071;-60
2023/05/13 09:11:59;;;;;;;8.63;4.33;;;;;;;;;;5061144;28;20487;-60
2023/05/13 09:14:33;;;;;;;7.80;4.57;;;;;;;;;;5059558;28;20052;-59
2023/05/13 09:17:00;;;;;;;6.90;3.67;;;;;;;;;;5059607;28;20161;-60
2023/05/13 09:19:26;;;;;;;9.23;4.73;;;;;;;;;;5061304;28;20041;-59
2023/05/13 09:21:53;;;;;;;13.70;4.53;;;;;;;;;;5058718;28;20450;-60
2023/05/13 09:24:20;;;;;;;9.57;4.82;;;;;;;;;;5051073;28;20044;-59
2023/05/13 09:26:47;;;;;;;8.63;4.57;;;;;;;;;;5059623;28;20049;-59
2023/05/13 09:29:14;;;;;;;8.40;3.95;;;;;;;;;;5054169;28;20091;-59
2023/05/13 09:31:40;;;;;;;6.63;3.83;;;;;;;;;;5059088;28;20068;-60
2023/05/13 09:34:06;;;;;;;5.47;3.70;;;;;;;;;;5055599;28;20064;-59
2023/05/13 09:36:33;;;;;;;6.03;3.78;;;;;;;;;;5053166;28;20040;-59
2023/05/13 09:38:59;;;;;;;6.78;3.90;;;;;;;;;;5060481;28;20048;-60
2023/05/13 09:41:30;;;;;;;8.20;3.55;;;;;;;;;;5052950;28;20037;-60
2023/05/13 09:43:57;;;;;;;9.70;3.83;;;;;;;;;;5050069;28;20052;-60
2023/05/13 09:46:24;;;;;;;7.13;3.55;;;;;;;;;;5050426;28;20121;-60
2023/05/13 09:48:55;;;;;;;10.18;4.00;;;;;;;;;;5050399;28;20060;-60
2023/05/13 09:51:26;;;;;;;9.73;3.63;;;;;;;;;;5050778;28;20045;-60
2023/05/13 09:53:52;;;;;;;6.70;4.30;;;;;;;;;;5050181;28;20045;-61
2023/05/13 09:56:22;;;;;;;5.35;3.00;;;;;;;;;;5058919;28;20070;-61
2023/05/13 09:58:52;;;;;;;6.15;3.13;;;;;;;;;;5058264;28;20095;-61
2023/05/13 10:01:20;;;;;;;5.43;3.20;;;;;;;;;;5070026;28;20052;-61
2023/05/13 10:03:46;;;;;;;11.60;3.20;;;;;;;;;;5070054;28;20048;-61
2023/05/13 10:06:12;;;;;;;8.10;3.40;;;;;;;;;;5069669;28;20577;-61
2023/05/13 10:08:39;;;;;;;4.28;3.10;;;;;;;;;;5068866;28;20067;-61
2023/05/13 10:11:06;;;;;;;7.32;2.90;;;;;;;;;;5069851;28;20229;-61
2023/05/13 10:13:33;;;;;;;6.43;2.92;;;;;;;;;;5070001;28;20079;-61
2023/05/13 10:15:59;;;;;;;7.38;3.20;;;;;;;;;;5057491;28;20262;-60
2023/05/13 10:18:27;;;;;;;5.93;3.00;;;;;;;;;;5049914;28;20086;-61
2023/05/13 10:20:54;;;;;;;7.13;2.65;;;;;;;;;;5049619;28;20041;-60
2023/05/13 10:23:21;;;;;;;4.90;2.85;;;;;;;;;;5049756;28;20051;-60
2023/05/13 10:25:48;;;;;;;6.68;3.20;;;;;;;;;;5049370;28;20056;-61
2023/05/13 10:28:15;;;;;;;6.65;2.90;;;;;;;;;;5049549;28;20418;-60
2023/05/13 10:30:42;;;;;;;6.50;3.17;;;;;;;;;;5049654;28;20569;-60
2023/05/13 10:33:08;;;;;;;5.70;2.53;;;;;;;;;;5049459;28;20712;-60
2023/05/13 10:35:38;;;;;;;5.25;2.25;;;;;;;;;;5049626;28;20049;-60
2023/05/13 10:38:10;;;;;;;7.47;2.30;;;;;;;;;;5049900;28;20499;-60
2023/05/13 10:40:39;;;;;;;4.68;2.45;;;;;;;;;;5048160;28;20045;-61
2023/05/13 10:43:14;;;;;;;7.00;2.35;;;;;;;;;;5050340;28;20128;-61
2023/05/13 10:45:44;;;;;;;8.70;2.55;;;;;;;;;;5060503;28;20356;-61
2023/05/13 10:48:11;;;;;;;5.63;2.42;;;;;;;;;;5069701;28;20529;-61
2023/05/13 10:50:37;;;;;;;5.18;2.53;;;;;;;;;;5069880;28;20048;-61
2023/05/13 10:53:08;;;;;;;8.43;2.90;;;;;;;;;;5069874;28;20079;-61
2023/05/13 10:55:40;;;;;;;5.32;2.72;;;;;;;;;;5068510;28;20060;-61
2023/05/13 10:58:09;;;;;;;5.70;2.53;;;;;;;;;;5068213;28;20509;-62
2023/05/13 11:00:36;;;;;;;9.65;2.70;;;;;;;;;;5067925;28;20114;-61
2023/05/13 11:03:14;;;;;;;6.60;2.83;;;;;;;;;;5068368;28;20122;-61
2023/05/13 11:05:41;;;;;;;8.27;2.42;;;;;;;;;;5068364;28;20054;-61
2023/05/13 11:08:07;;;;;;;4.88;2.05;;;;;;;;;;5068193;28;20041;-62
2023/05/13 11:10:33;;;;;;;5.50;2.13;;;;;;;;;;5068255;28;20041;-61
2023/05/13 11:13:29;;;;;;;5.88;2.40;;;;;;;;;;5067810;28;20123;-61
2023/05/13 11:15:55;;;;;;;5.40;2.55;;;;;;;;;;5062659;28;20053;-61
2023/05/13 11:18:29;;;;;;;4.57;2.53;;;;;;;;;;5068199;28;20114;-61
2023/05/13 11:20:55;;;;;;;7.32;2.38;;;;;;;;;;5068519;28;20055;-61
2023/05/13 11:23:21;;;;;;;9.93;3.15;;;;;;;;;;5066551;28;20040;-62
2023/05/13 11:26:07;;;;;;;9.20;2.35;;;;;;;;;;5066795;28;20048;-61
2023/05/13 11:28:52;;;;;;;7.20;2.78;;;;;;;;;;5066674;28;20051;-61
2023/05/13 11:31:18;;;;;;;5.35;2.30;;;;;;;;;;5065815;28;20060;-62
2023/05/13 11:34:03;;;;;;;7.32;2.20;;;;;;;;;;5066386;28;20502;-61
2023/05/13 11:36:30;;;;;;;6.32;2.10;;;;;;;;;;5067511;28;20049;-61
2023/05/13 11:39:04;;;;;;;8.63;2.13;;;;;;;;;;5071597;28;20063;-61
2023/05/13 11:41:32;;;;;;;8.52;2.28;;;;;;;;;;5071979;28;20041;-61
2023/05/13 11:43:59;;;;;;;5.68;2.22;;;;;;;;;;5071157;28;20131;-61
2023/05/13 11:46:25;;;;;;;7.72;2.22;;;;;;;;;;5071958;28;20048;-61
2023/05/13 11:48:51;;;;;;;3.28;1.73;;;;;;;;;;5071767;28;20462;-61
2023/05/13 11:51:18;;;;;;;4.05;2.00;;;;;;;;;;5070972;28;20044;-61
2023/05/13 11:53:44;;;;;;;4.88;2.22;;;;;;;;;;5071193;28;20481;-61
2023/05/13 11:56:11;;;;;;;9.93;2.33;;;;;;;;;;5070613;28;20055;-61
2023/05/13 11:58:37;;;;;;;4.75;1.95;;;;;;;;;;5070640;28;20059;-61
2023/05/13 12:01:03;;;;;;;8.15;2.40;;;;;;;;;;5070306;28;20128;-61
2023/05/13 12:03:30;;;;;;;5.68;2.50;;;;;;;;;;5072567;28;20041;-61
2023/05/13 12:06:02;;;;;;;6.22;2.08;;;;;;;;;;5072650;28;20157;-61
2023/05/13 12:08:28;;;;;;;7.80;2.30;;;;;;;;;;5072934;28;20181;-61
2023/05/13 12:10:55;;;;;;;4.60;2.00;;;;;;;;;;5072247;28;20043;-61
2023/05/13 12:13:21;;;;;;;8.38;2.40;;;;;;;;;;5071914;28;20044;-61
2023/05/13 12:15:48;;;;;;;10.15;2.05;;;;;;;;;;5072457;28;20044;-61
2023/05/13 12:18:14;;;;;;;6.50;2.47;;;;;;;;;;5072083;28;20060;-61
2023/05/13 12:20:40;;;;;;;7.30;2.53;;;;;;;;;;5072427;28;20053;-61
2023/05/13 12:23:10;;;;;;;6.55;2.20;;;;;;;;;;5071448;28;20513;-61
2023/05/13 12:25:41;;;;;;;6.88;2.42;;;;;;;;;;5071856;28;20423;-61
2023/05/13 12:28:09;;;;;;;5.00;1.92;;;;;;;;;;5072023;28;20086;-61
2023/05/13 12:30:36;;;;;;;3.63;1.90;;;;;;;;;;5071917;28;20150;-60
2023/05/13 12:33:06;;;;;;;4.90;3.05;;;;;;;;;;5071379;28;20072;-60
2023/05/13 12:35:33;;;;;;;5.43;2.42;;;;;;;;;;5072080;28;20044;-60
2023/05/13 12:38:02;;;;;;;9.30;2.25;;;;;;;;;;5071485;28;20084;-60
2023/05/13 12:40:29;;;;;;;6.32;2.35;;;;;;;;;;5072027;28;20136;-60
2023/05/13 12:43:02;;;;;;;9.18;2.85;;;;;;;;;;5071410;28;20076;-60
2023/05/13 12:45:29;;;;;;;7.50;2.42;;;;;;;;;;5071773;28;20044;-60
2023/05/13 12:47:55;;;;;;;7.47;2.10;;;;;;;;;;5070942;28;20090;-60
2023/05/13 12:50:22;;;;;;;4.10;2.08;;;;;;;;;;5071417;28;20470;-60
2023/05/13 12:52:48;;;;;;;7.85;2.33;;;;;;;;;;5071619;28;20496;-61
2023/05/13 12:55:14;;;;;;;6.68;2.15;;;;;;;;;;5071167;28;20062;-60
2023/05/13 12:57:43;;;;;;;4.38;2.08;;;;;;;;;;5070805;28;20502;-61
2023/05/13 13:00:10;;;;;;;4.60;2.05;;;;;;;;;;5071306;28;20132;-60
2023/05/13 13:02:36;;;;;;;5.97;2.17;;;;;;;;;;5070599;28;20585;-61
2023/05/13 13:05:03;;;;;;;7.80;2.63;;;;;;;;;;5070718;28;20052;-60
2023/05/13 13:07:29;;;;;;;6.80;2.13;;;;;;;;;;5071265;28;20168;-60
2023/05/13 13:09:56;;;;;;;8.50;2.13;;;;;;;;;;5058649;28;20048;-61
2023/05/13 13:12:22;;;;;;;5.60;1.77;;;;;;;;;;5050505;28;20043;-60
2023/05/13 13:14:48;;;;;;;3.42;1.95;;;;;;;;;;5058549;28;20037;-60
2023/05/13 13:17:14;;;;;;;9.27;2.72;;;;;;;;;;5053233;28;20041;-60
2023/05/13 13:19:40;;;;;;;9.32;2.42;;;;;;;;;;5053108;28;20114;-60
2023/05/13 13:22:06;;;;;;;3.75;1.85;;;;;;;;;;5061145;28;20042;-60
2023/05/13 13:24:32;;;;;;;7.80;2.20;;;;;;;;;;5060144;28;20051;-60
2023/05/13 13:26:58;;;;;;;5.18;2.00;;;;;;;;;;5059209;28;20175;-60
2023/05/13 13:29:24;;;;;;;7.28;2.70;;;;;;;;;;5058313;28;20051;-60
2023/05/13 13:31:51;;;;;;;6.03;2.53;;;;;;;;;;5060004;28;20090;-60
2023/05/13 13:34:17;;;;;;;5.50;2.00;;;;;;;;;;5058920;28;20511;-60
2023/05/13 13:36:43;;;;;;;7.15;2.28;;;;;;;;;;5057977;28;20076;-60
2023/05/13 13:39:09;;;;;;;5.93;2.30;;;;;;;;;;5060173;28;20110;-60
2023/05/13 13:41:35;;;;;;;4.50;1.90;;;;;;;;;;5060773;28;20040;-60
2023/05/13 13:44:02;;;;;;;4.60;1.83;;;;;;;;;;5061279;28;20047;-61
2023/05/13 13:46:28;;;;;;;7.55;2.13;;;;;;;;;;5060210;28;20060;-61
2023/05/13 13:48:54;;;;;;;4.78;1.92;;;;;;;;;;5054951;28;20096;-61
2023/05/13 13:51:23;;;;;;;4.05;2.03;;;;;;;;;;5052574;28;20053;-61
2023/05/13 13:53:49;;;;;;;5.28;2.13;;;;;;;;;;5052872;28;20040;-61
2023/05/13 13:56:15;;;;;;;4.80;2.47;;;;;;;;;;5052608;28;20496;-61
2023/05/13 13:58:41;;;;;;;5.97;2.08;;;;;;;;;;5052122;28;20052;-60
2023/05/13 14:01:07;;;;;;;4.82;2.65;;;;;;;;;;5056160;28;20052;-60
2023/05/13 14:03:33;;;;;;;5.72;2.35;;;;;;;;;;5052903;28;20045;-61
2023/05/13 14:06:00;;;;;;;6.22;2.03;;;;;;;;;;5052110;28;20053;-61
2023/05/13 14:08:26;;;;;;;5.80;2.08;;;;;;;;;;5051620;28;20056;-61
2023/05/13 14:10:52;;;;;;;6.30;2.50;;;;;;;;;;5055051;28;20097;-61
2023/05/13 14:13:18;;;;;;;5.10;1.80;;;;;;;;;;5049192;28;20426;-61
2023/05/13 14:15:44;;;;;;;3.28;1.70;;;;;;;;;;5056270;28;20060;-60
2023/05/13 14:18:10;;;;;;;6.35;2.17;;;;;;;;;;5052922;28;20059;-61
2023/05/13 14:20:37;;;;;;;3.50;1.67;;;;;;;;;;5050995;28;20045;-61
2023/05/13 14:23:03;;;;;;;3.58;1.80;;;;;;;;;;5051612;28;20468;-61
2023/05/13 14:25:29;;;;;;;4.88;2.08;;;;;;;;;;5055107;28;20036;-61
2023/05/13 14:27:55;;;;;;;5.38;2.30;;;;;;;;;;5059288;28;20040;-61